BCS278 EDDP-LFML
Flight info
| Callsign | BCS278 |
|---|---|
| Flight time | 1h 44m |
| Altitude | 36000 |
| Route | NEVKO2S NEVKO Q243 BAMKI Z94 KOMIB DCT TEDGO/N0460F350 N869 NATOR DCT LUTIX DCT BENOT DCT NEMOS DCT GEVEA DCT INCUS DCT BALSI |
| Aircraft | B752/M-SDE3FHIM3RW/LB1 |
Departure
| Time | 2026-05-05 12:46 |
|---|---|
| Airport | Leipzig/Halle Airport (EDDP) |
Arrival
| Time | 2026-05-05 14:30 |
|---|---|
| Airport | Marseille Provence Airport (LFML) |
| Time | Latitude | Longitude | Altitude | Speed | Heading |
|---|---|---|---|---|---|
| 2026-05-05 12:08 | 51.40779 | 12.23888 | 453 ft | 0 kts | 85° |
| 2026-05-05 12:33 | 51.40779 | 12.23881 | 453 ft | 2 kts | 85° |
| 2026-05-05 12:33 | 51.40778 | 12.23857 | 453 ft | 2 kts | 86° |
| 2026-05-05 12:34 | 51.40777 | 12.23841 | 453 ft | 1 kts | 86° |
| 2026-05-05 12:34 | 51.40774 | 12.23818 | 453 ft | 2 kts | 64° |
| 2026-05-05 12:34 | 51.40766 | 12.23799 | 453 ft | 2 kts | 44° |
| 2026-05-05 12:34 | 51.40754 | 12.23785 | 452 ft | 2 kts | 23° |
| 2026-05-05 12:35 | 51.40740 | 12.23780 | 452 ft | 2 kts | 2° |
| 2026-05-05 12:35 | 51.40733 | 12.23780 | 452 ft | 1 kts | 353° |
| 2026-05-05 12:35 | 51.40730 | 12.23780 | 452 ft | 0 kts | 355° |
| 2026-05-05 12:38 | 51.40762 | 12.23776 | 453 ft | 8 kts | 355° |
| 2026-05-05 12:38 | 51.40837 | 12.23766 | 456 ft | 13 kts | 355° |
| 2026-05-05 12:38 | 51.40939 | 12.23755 | 458 ft | 17 kts | 357° |
| 2026-05-05 12:39 | 51.41007 | 12.23748 | 459 ft | 7 kts | 355° |
| 2026-05-05 12:39 | 51.41055 | 12.23798 | 459 ft | 12 kts | 73° |
| 2026-05-05 12:39 | 51.41066 | 12.23981 | 456 ft | 18 kts | 86° |
| 2026-05-05 12:39 | 51.41074 | 12.24207 | 453 ft | 21 kts | 84° |
| 2026-05-05 12:40 | 51.41089 | 12.24454 | 451 ft | 24 kts | 84° |
| 2026-05-05 12:40 | 51.41103 | 12.24752 | 448 ft | 28 kts | 84° |
| 2026-05-05 12:40 | 51.41116 | 12.25039 | 448 ft | 24 kts | 88° |
| 2026-05-05 12:40 | 51.41129 | 12.25330 | 454 ft | 28 kts | 85° |
| 2026-05-05 12:41 | 51.41140 | 12.25560 | 459 ft | 10 kts | 80° |
| 2026-05-05 12:41 | 51.41208 | 12.25626 | 462 ft | 15 kts | 358° |
| 2026-05-05 12:41 | 51.41258 | 12.25621 | 463 ft | 0 kts | 355° |
| 2026-05-05 12:42 | 51.41274 | 12.25619 | 463 ft | 3 kts | 355° |
| 2026-05-05 12:42 | 51.41283 | 12.25617 | 463 ft | 0 kts | 355° |
| 2026-05-05 12:44 | 51.41291 | 12.25616 | 463 ft | 4 kts | 355° |
| 2026-05-05 12:44 | 51.41342 | 12.25610 | 464 ft | 10 kts | 355° |
| 2026-05-05 12:44 | 51.41395 | 12.25576 | 465 ft | 8 kts | 292° |
| 2026-05-05 12:45 | 51.41393 | 12.25425 | 462 ft | 26 kts | 266° |
| 2026-05-05 12:45 | 51.41366 | 12.24761 | 453 ft | 95 kts | 266° |
| 2026-05-05 12:45 | 51.41301 | 12.23361 | 467 ft | 156 kts | 264° |
| 2026-05-05 12:45 | 51.41186 | 12.21433 | 751 ft | 185 kts | 263° |
| 2026-05-05 12:46 | 51.40992 | 12.19383 | 1578 ft | 187 kts | 263° |
| 2026-05-05 12:46 | 51.40810 | 12.17281 | 2074 ft | 206 kts | 265° |
| 2026-05-05 12:46 | 51.40661 | 12.14869 | 2536 ft | 227 kts | 268° |
| 2026-05-05 12:46 | 51.40540 | 12.12208 | 2970 ft | 251 kts | 268° |
| 2026-05-05 12:47 | 51.40430 | 12.09460 | 3856 ft | 254 kts | 268° |
| 2026-05-05 12:47 | 51.40324 | 12.06512 | 4436 ft | 272 kts | 268° |
| 2026-05-05 12:47 | 51.40217 | 12.03545 | 5414 ft | 272 kts | 268° |
| 2026-05-05 12:47 | 51.40109 | 12.00511 | 6281 ft | 277 kts | 267° |
| 2026-05-05 12:48 | 51.39999 | 11.97467 | 7246 ft | 276 kts | 266° |
| 2026-05-05 12:48 | 51.39580 | 11.94515 | 8167 ft | 277 kts | 243° |
| 2026-05-05 12:48 | 51.38360 | 11.92147 | 8931 ft | 282 kts | 216° |
| 2026-05-05 12:48 | 51.36728 | 11.90516 | 9870 ft | 281 kts | 212° |
| 2026-05-05 12:49 | 51.35053 | 11.88879 | 10511 ft | 291 kts | 212° |
| 2026-05-05 12:49 | 51.33277 | 11.87184 | 10868 ft | 310 kts | 211° |
| 2026-05-05 12:49 | 51.31359 | 11.85382 | 11221 ft | 329 kts | 211° |
| 2026-05-05 12:49 | 51.29333 | 11.83494 | 11539 ft | 347 kts | 211° |
| 2026-05-05 12:50 | 51.27178 | 11.81495 | 11831 ft | 365 kts | 211° |
| 2026-05-05 12:50 | 51.25029 | 11.79354 | 12590 ft | 366 kts | 217° |
| 2026-05-05 12:50 | 51.23051 | 11.76860 | 13184 ft | 371 kts | 218° |
| 2026-05-05 12:50 | 51.20989 | 11.74306 | 13916 ft | 374 kts | 218° |
| 2026-05-05 12:51 | 51.18958 | 11.71776 | 14661 ft | 376 kts | 218° |
| 2026-05-05 12:51 | 51.16901 | 11.69216 | 15347 ft | 379 kts | 218° |
| 2026-05-05 12:51 | 51.14819 | 11.66625 | 16009 ft | 383 kts | 218° |
| 2026-05-05 12:51 | 51.12719 | 11.64013 | 16713 ft | 384 kts | 219° |
| 2026-05-05 12:52 | 51.10609 | 11.61393 | 17358 ft | 387 kts | 219° |
| 2026-05-05 12:52 | 51.08474 | 11.58742 | 17967 ft | 390 kts | 218° |
| 2026-05-05 12:52 | 51.06332 | 11.56086 | 18544 ft | 394 kts | 218° |
| 2026-05-05 12:52 | 51.04178 | 11.53418 | 19132 ft | 397 kts | 218° |
| 2026-05-05 12:53 | 51.01985 | 11.50707 | 19658 ft | 401 kts | 218° |
| 2026-05-05 12:53 | 50.99785 | 11.47989 | 20228 ft | 404 kts | 218° |
| 2026-05-05 12:53 | 50.97574 | 11.45261 | 20740 ft | 408 kts | 218° |
| 2026-05-05 12:53 | 50.95322 | 11.42487 | 21329 ft | 410 kts | 218° |
| 2026-05-05 12:54 | 50.90815 | 11.36942 | 22355 ft | 416 kts | 218° |
| 2026-05-05 12:54 | 50.88545 | 11.34157 | 22781 ft | 421 kts | 217° |
| 2026-05-05 12:54 | 50.86295 | 11.31212 | 23321 ft | 423 kts | 223° |
| 2026-05-05 12:55 | 50.84327 | 11.27685 | 23775 ft | 427 kts | 231° |
| 2026-05-05 12:55 | 50.82518 | 11.23968 | 24279 ft | 429 kts | 231° |
| 2026-05-05 12:55 | 50.80692 | 11.20240 | 24787 ft | 431 kts | 231° |
| 2026-05-05 12:55 | 50.78887 | 11.16543 | 25264 ft | 433 kts | 231° |
| 2026-05-05 12:56 | 50.77041 | 11.12760 | 25786 ft | 434 kts | 231° |
| 2026-05-05 12:56 | 50.75211 | 11.09009 | 26181 ft | 437 kts | 231° |
| 2026-05-05 12:56 | 50.73327 | 11.05179 | 26661 ft | 438 kts | 230° |
| 2026-05-05 12:56 | 50.71249 | 11.01767 | 27046 ft | 440 kts | 220° |
| 2026-05-05 12:57 | 50.68805 | 10.98852 | 27467 ft | 441 kts | 215° |
| 2026-05-05 12:57 | 50.66320 | 10.96086 | 27926 ft | 442 kts | 215° |
| 2026-05-05 12:57 | 50.63776 | 10.93266 | 28172 ft | 447 kts | 215° |
| 2026-05-05 12:57 | 50.61261 | 10.90493 | 28664 ft | 446 kts | 215° |
| 2026-05-05 12:58 | 50.58724 | 10.87705 | 28963 ft | 449 kts | 215° |
| 2026-05-05 12:58 | 50.56158 | 10.84897 | 29344 ft | 450 kts | 214° |
| 2026-05-05 12:58 | 50.53570 | 10.82068 | 29656 ft | 453 kts | 215° |
| 2026-05-05 12:58 | 50.51005 | 10.79269 | 30136 ft | 451 kts | 214° |
| 2026-05-05 12:59 | 50.48447 | 10.76485 | 30522 ft | 452 kts | 214° |
| 2026-05-05 12:59 | 50.45860 | 10.73673 | 31002 ft | 450 kts | 214° |
| 2026-05-05 12:59 | 50.43317 | 10.70910 | 31328 ft | 451 kts | 215° |
| 2026-05-05 13:00 | 50.38173 | 10.65333 | 32274 ft | 446 kts | 215° |
| 2026-05-05 13:00 | 50.35625 | 10.62575 | 32719 ft | 444 kts | 214° |
| 2026-05-05 13:01 | 50.28053 | 10.54423 | 33742 ft | 442 kts | 214° |
| 2026-05-05 13:01 | 50.25509 | 10.51692 | 34163 ft | 439 kts | 214° |
| 2026-05-05 13:01 | 50.23025 | 10.48914 | 34459 ft | 439 kts | 219° |
| 2026-05-05 13:01 | 50.20824 | 10.45693 | 34831 ft | 437 kts | 225° |
| 2026-05-05 13:02 | 50.18674 | 10.42276 | 35128 ft | 435 kts | 225° |
| 2026-05-05 13:02 | 50.16564 | 10.38938 | 35274 ft | 437 kts | 225° |
| 2026-05-05 13:02 | 50.14442 | 10.35569 | 35484 ft | 436 kts | 225° |
| 2026-05-05 13:02 | 50.12325 | 10.32208 | 35735 ft | 432 kts | 224° |
| 2026-05-05 13:03 | 50.07967 | 10.25704 | 35794 ft | 432 kts | 216° |
| 2026-05-05 13:03 | 50.02704 | 10.21220 | 35786 ft | 434 kts | 205° |
| 2026-05-05 13:04 | 49.97232 | 10.17314 | 35786 ft | 434 kts | 204° |
| 2026-05-05 13:04 | 49.91734 | 10.13456 | 35789 ft | 435 kts | 204° |
| 2026-05-05 13:05 | 49.86234 | 10.09630 | 35807 ft | 435 kts | 204° |
| 2026-05-05 13:05 | 49.80723 | 10.05816 | 35816 ft | 434 kts | 204° |
| 2026-05-05 13:06 | 49.75261 | 10.02050 | 35819 ft | 433 kts | 204° |
| 2026-05-05 13:06 | 49.69776 | 9.98277 | 35819 ft | 432 kts | 204° |
| 2026-05-05 13:07 | 49.64280 | 9.94510 | 35821 ft | 433 kts | 204° |
| 2026-05-05 13:07 | 49.58777 | 9.90745 | 35820 ft | 432 kts | 204° |
| 2026-05-05 13:08 | 49.53289 | 9.87000 | 35821 ft | 433 kts | 204° |
| 2026-05-05 13:08 | 49.47798 | 9.83263 | 35825 ft | 434 kts | 203° |
| 2026-05-05 13:09 | 49.42286 | 9.79521 | 35824 ft | 433 kts | 203° |
| 2026-05-05 13:09 | 49.36767 | 9.75784 | 35827 ft | 435 kts | 203° |
| 2026-05-05 13:10 | 49.31262 | 9.72065 | 35826 ft | 434 kts | 203° |
| 2026-05-05 13:10 | 49.25732 | 9.68338 | 35826 ft | 435 kts | 203° |
| 2026-05-05 13:11 | 49.20212 | 9.64628 | 35825 ft | 436 kts | 203° |
| 2026-05-05 13:11 | 49.14688 | 9.60922 | 35828 ft | 435 kts | 203° |
| 2026-05-05 13:12 | 49.09169 | 9.57231 | 35822 ft | 436 kts | 203° |
| 2026-05-05 13:12 | 49.03591 | 9.53509 | 35821 ft | 436 kts | 203° |
| 2026-05-05 13:13 | 48.98037 | 9.49812 | 35823 ft | 437 kts | 203° |
| 2026-05-05 13:13 | 48.92500 | 9.46134 | 35807 ft | 437 kts | 203° |
| 2026-05-05 13:14 | 48.86957 | 9.42463 | 35831 ft | 438 kts | 203° |
| 2026-05-05 13:14 | 48.81385 | 9.38780 | 35830 ft | 438 kts | 203° |
| 2026-05-05 13:15 | 48.75790 | 9.35091 | 35829 ft | 438 kts | 203° |
| 2026-05-05 13:15 | 48.70212 | 9.31423 | 35844 ft | 439 kts | 202° |
| 2026-05-05 13:16 | 48.64702 | 9.27609 | 35846 ft | 438 kts | 209° |
| 2026-05-05 13:16 | 48.60049 | 9.21746 | 35857 ft | 445 kts | 227° |
| 2026-05-05 13:17 | 48.56353 | 9.14177 | 35847 ft | 448 kts | 231° |
| 2026-05-05 13:17 | 48.52750 | 9.06621 | 35833 ft | 446 kts | 231° |
| 2026-05-05 13:18 | 48.49129 | 8.99009 | 35835 ft | 449 kts | 231° |
| 2026-05-05 13:18 | 48.45516 | 8.91417 | 35836 ft | 448 kts | 231° |
| 2026-05-05 13:19 | 48.41885 | 8.83801 | 35849 ft | 447 kts | 232° |
| 2026-05-05 13:19 | 48.38274 | 8.76246 | 35841 ft | 447 kts | 232° |
| 2026-05-05 13:20 | 48.34634 | 8.68651 | 35852 ft | 447 kts | 232° |
| 2026-05-05 13:20 | 48.31018 | 8.61128 | 35848 ft | 447 kts | 232° |
| 2026-05-05 13:21 | 48.27375 | 8.53567 | 35847 ft | 447 kts | 232° |
| 2026-05-05 13:21 | 48.23742 | 8.46051 | 35849 ft | 447 kts | 232° |
| 2026-05-05 13:22 | 48.20106 | 8.38545 | 35840 ft | 447 kts | 232° |
| 2026-05-05 13:22 | 48.16013 | 8.31676 | 35867 ft | 443 kts | 216° |
| 2026-05-05 13:23 | 48.10960 | 8.26472 | 35862 ft | 441 kts | 212° |
| 2026-05-05 13:23 | 48.05843 | 8.21438 | 35842 ft | 441 kts | 211° |
| 2026-05-05 13:24 | 48.00712 | 8.16461 | 35864 ft | 442 kts | 211° |
| 2026-05-05 13:24 | 47.95573 | 8.11514 | 35850 ft | 441 kts | 211° |
| 2026-05-05 13:25 | 47.90432 | 8.06585 | 35865 ft | 440 kts | 211° |
| 2026-05-05 13:25 | 47.85323 | 8.01703 | 35874 ft | 439 kts | 211° |
| 2026-05-05 13:26 | 47.80189 | 7.96810 | 35880 ft | 441 kts | 212° |
| 2026-05-05 13:26 | 47.75056 | 7.91930 | 35867 ft | 441 kts | 212° |
| 2026-05-05 13:27 | 47.69893 | 7.87034 | 35875 ft | 439 kts | 212° |
| 2026-05-05 13:27 | 47.64781 | 7.82198 | 35876 ft | 437 kts | 212° |
| 2026-05-05 13:28 | 47.59680 | 7.77383 | 35882 ft | 437 kts | 212° |
| 2026-05-05 13:28 | 47.54548 | 7.72549 | 35872 ft | 437 kts | 212° |
| 2026-05-05 13:29 | 47.49464 | 7.67774 | 35887 ft | 436 kts | 212° |
| 2026-05-05 13:29 | 47.44347 | 7.62978 | 35888 ft | 436 kts | 212° |
| 2026-05-05 13:30 | 47.39244 | 7.58207 | 35871 ft | 435 kts | 212° |
| 2026-05-05 13:30 | 47.34149 | 7.53454 | 35887 ft | 436 kts | 212° |
| 2026-05-05 13:31 | 47.29026 | 7.48686 | 35885 ft | 434 kts | 212° |
| 2026-05-05 13:31 | 47.23940 | 7.43963 | 35900 ft | 433 kts | 212° |
| 2026-05-05 13:32 | 47.18860 | 7.39243 | 35880 ft | 432 kts | 214° |
| 2026-05-05 13:32 | 47.14498 | 7.33252 | 35904 ft | 435 kts | 229° |
| 2026-05-05 13:33 | 47.10730 | 7.26365 | 35895 ft | 434 kts | 229° |
| 2026-05-05 13:33 | 47.06969 | 7.19484 | 35902 ft | 433 kts | 230° |
| 2026-05-05 13:34 | 47.03194 | 7.12574 | 35905 ft | 436 kts | 230° |
| 2026-05-05 13:34 | 46.99432 | 7.05695 | 35901 ft | 434 kts | 230° |
| 2026-05-05 13:35 | 46.95661 | 6.98814 | 35904 ft | 434 kts | 230° |
| 2026-05-05 13:35 | 46.91881 | 6.92011 | 35889 ft | 432 kts | 226° |
| 2026-05-05 13:36 | 46.87387 | 6.86227 | 35913 ft | 433 kts | 219° |
| 2026-05-05 13:36 | 46.82781 | 6.80675 | 35916 ft | 431 kts | 219° |
| 2026-05-05 13:37 | 46.78146 | 6.75138 | 35908 ft | 430 kts | 219° |
| 2026-05-05 13:37 | 46.73512 | 6.69629 | 35898 ft | 431 kts | 219° |
| 2026-05-05 13:38 | 46.68892 | 6.64155 | 35897 ft | 431 kts | 219° |
| 2026-05-05 13:38 | 46.64272 | 6.58694 | 35897 ft | 429 kts | 219° |
| 2026-05-05 13:39 | 46.59640 | 6.53234 | 35893 ft | 429 kts | 219° |
| 2026-05-05 13:39 | 46.55028 | 6.47810 | 35901 ft | 429 kts | 219° |
| 2026-05-05 13:40 | 46.50404 | 6.42384 | 35895 ft | 429 kts | 219° |
| 2026-05-05 13:40 | 46.45759 | 6.36946 | 35894 ft | 429 kts | 219° |
| 2026-05-05 13:41 | 46.41130 | 6.31539 | 35905 ft | 428 kts | 218° |
| 2026-05-05 13:41 | 46.36483 | 6.26121 | 35893 ft | 429 kts | 218° |
| 2026-05-05 13:42 | 46.31850 | 6.20733 | 35894 ft | 429 kts | 218° |
| 2026-05-05 13:42 | 46.27097 | 6.15583 | 35911 ft | 429 kts | 210° |
| 2026-05-05 13:43 | 46.21496 | 6.12640 | 35926 ft | 432 kts | 193° |
| 2026-05-05 13:43 | 46.15586 | 6.11168 | 35916 ft | 431 kts | 192° |
| 2026-05-05 13:44 | 46.09680 | 6.09783 | 35910 ft | 432 kts | 191° |
| 2026-05-05 13:44 | 46.03767 | 6.08441 | 35916 ft | 433 kts | 191° |
| 2026-05-05 13:45 | 45.97788 | 6.07107 | 35925 ft | 432 kts | 191° |
| 2026-05-05 13:45 | 45.91907 | 6.05804 | 35914 ft | 430 kts | 192° |
| 2026-05-05 13:46 | 45.85957 | 6.04491 | 35916 ft | 431 kts | 192° |
| 2026-05-05 13:46 | 45.80060 | 6.03187 | 35919 ft | 429 kts | 192° |
| 2026-05-05 13:47 | 45.74163 | 6.01884 | 35930 ft | 430 kts | 192° |
| 2026-05-05 13:47 | 45.68265 | 6.00585 | 35906 ft | 429 kts | 192° |
| 2026-05-05 13:48 | 45.62386 | 5.99292 | 35912 ft | 429 kts | 192° |
| 2026-05-05 13:48 | 45.56479 | 5.97996 | 35915 ft | 429 kts | 192° |
| 2026-05-05 13:49 | 45.50677 | 5.96359 | 35910 ft | 423 kts | 202° |
| 2026-05-05 13:49 | 45.45617 | 5.92372 | 35927 ft | 419 kts | 221° |
| 2026-05-05 13:50 | 45.41365 | 5.86678 | 35909 ft | 418 kts | 224° |
| 2026-05-05 13:50 | 45.37229 | 5.80910 | 35916 ft | 419 kts | 225° |
| 2026-05-05 13:51 | 45.33108 | 5.75087 | 35920 ft | 417 kts | 225° |
| 2026-05-05 13:51 | 45.29026 | 5.69294 | 35901 ft | 417 kts | 225° |
| 2026-05-05 13:52 | 45.24937 | 5.63488 | 35901 ft | 417 kts | 225° |
| 2026-05-05 13:52 | 45.20867 | 5.57715 | 35905 ft | 415 kts | 226° |
| 2026-05-05 13:53 | 45.16777 | 5.51921 | 35904 ft | 417 kts | 225° |
| 2026-05-05 13:53 | 45.12712 | 5.46176 | 35867 ft | 417 kts | 226° |
| 2026-05-05 13:54 | 45.08624 | 5.40410 | 35885 ft | 414 kts | 225° |
| 2026-05-05 13:54 | 45.04565 | 5.34697 | 35891 ft | 416 kts | 225° |
| 2026-05-05 13:55 | 45.00452 | 5.28922 | 35889 ft | 416 kts | 225° |
| 2026-05-05 13:55 | 44.96355 | 5.23180 | 35870 ft | 415 kts | 225° |
| 2026-05-05 13:56 | 44.92268 | 5.17465 | 35417 ft | 412 kts | 225° |
| 2026-05-05 13:56 | 44.90285 | 5.14698 | 35005 ft | 390 kts | 225° |
| 2026-05-05 13:56 | 44.88388 | 5.12050 | 34617 ft | 381 kts | 225° |
| 2026-05-05 13:57 | 44.86518 | 5.09444 | 34200 ft | 384 kts | 225° |
| 2026-05-05 13:57 | 44.84611 | 5.06788 | 33706 ft | 387 kts | 225° |
| 2026-05-05 13:57 | 44.82696 | 5.04124 | 33193 ft | 390 kts | 225° |
| 2026-05-05 13:57 | 44.80782 | 5.01465 | 32675 ft | 391 kts | 225° |
| 2026-05-05 13:58 | 44.78848 | 4.98781 | 32153 ft | 391 kts | 225° |
| 2026-05-05 13:58 | 44.76885 | 4.96185 | 31635 ft | 391 kts | 220° |
| 2026-05-05 13:58 | 44.74629 | 4.94056 | 31135 ft | 396 kts | 211° |
| 2026-05-05 13:58 | 44.72067 | 4.92539 | 30627 ft | 402 kts | 201° |
| 2026-05-05 13:59 | 44.66465 | 4.91628 | 29547 ft | 417 kts | 181° |
| 2026-05-05 13:59 | 44.63594 | 4.92175 | 28997 ft | 423 kts | 177° |
| 2026-05-05 14:00 | 44.57841 | 4.93500 | 27842 ft | 415 kts | 177° |
| 2026-05-05 14:00 | 44.55948 | 4.93938 | 27464 ft | 412 kts | 176° |
| 2026-05-05 14:00 | 44.52170 | 4.94810 | 26818 ft | 418 kts | 176° |
| 2026-05-05 14:00 | 44.49307 | 4.95473 | 26231 ft | 415 kts | 176° |
| 2026-05-05 14:01 | 44.46509 | 4.96129 | 25675 ft | 403 kts | 176° |
| 2026-05-05 14:01 | 44.43781 | 4.96763 | 25151 ft | 395 kts | 176° |
| 2026-05-05 14:01 | 44.41092 | 4.97385 | 24615 ft | 392 kts | 176° |
| 2026-05-05 14:01 | 44.38416 | 4.98004 | 24096 ft | 393 kts | 176° |
| 2026-05-05 14:02 | 44.35721 | 4.98627 | 23581 ft | 393 kts | 175° |
| 2026-05-05 14:02 | 44.33028 | 4.99252 | 23078 ft | 388 kts | 175° |
| 2026-05-05 14:02 | 44.30390 | 4.99862 | 22582 ft | 387 kts | 175° |
| 2026-05-05 14:02 | 44.27769 | 5.00469 | 22092 ft | 385 kts | 175° |
| 2026-05-05 14:03 | 44.25146 | 5.01075 | 21614 ft | 383 kts | 175° |
| 2026-05-05 14:03 | 44.22536 | 5.01678 | 21142 ft | 381 kts | 175° |
| 2026-05-05 14:03 | 44.19930 | 5.02278 | 20678 ft | 379 kts | 174° |
| 2026-05-05 14:03 | 44.17327 | 5.02878 | 20224 ft | 377 kts | 174° |
| 2026-05-05 14:04 | 44.14749 | 5.03472 | 19748 ft | 374 kts | 174° |
| 2026-05-05 14:04 | 44.12212 | 5.04056 | 19303 ft | 371 kts | 174° |
| 2026-05-05 14:04 | 44.09668 | 5.04640 | 18805 ft | 370 kts | 174° |
| 2026-05-05 14:04 | 44.07140 | 5.05220 | 18320 ft | 368 kts | 173° |
| 2026-05-05 14:05 | 44.04652 | 5.05791 | 17852 ft | 365 kts | 173° |
| 2026-05-05 14:05 | 44.02146 | 5.06366 | 17392 ft | 364 kts | 173° |
| 2026-05-05 14:05 | 43.99653 | 5.06938 | 16925 ft | 362 kts | 173° |
| 2026-05-05 14:05 | 43.97190 | 5.07502 | 16502 ft | 360 kts | 173° |
| 2026-05-05 14:06 | 43.94706 | 5.08070 | 16041 ft | 358 kts | 173° |
| 2026-05-05 14:06 | 43.92262 | 5.08629 | 15586 ft | 357 kts | 173° |
| 2026-05-05 14:06 | 43.89895 | 5.09170 | 15170 ft | 354 kts | 173° |
| 2026-05-05 14:06 | 43.87453 | 5.09951 | 14696 ft | 356 kts | 165° |
| 2026-05-05 14:07 | 43.85106 | 5.11067 | 14026 ft | 356 kts | 164° |
| 2026-05-05 14:07 | 43.82821 | 5.12147 | 13997 ft | 341 kts | 164° |
| 2026-05-05 14:07 | 43.80551 | 5.13162 | 13953 ft | 342 kts | 169° |
| 2026-05-05 14:07 | 43.78204 | 5.13518 | 13311 ft | 335 kts | 185° |
| 2026-05-05 14:08 | 43.75966 | 5.12895 | 12690 ft | 329 kts | 202° |
| 2026-05-05 14:08 | 43.74009 | 5.11397 | 12090 ft | 325 kts | 218° |
| 2026-05-05 14:08 | 43.72464 | 5.09114 | 11489 ft | 323 kts | 235° |
| 2026-05-05 14:08 | 43.71545 | 5.06353 | 11034 ft | 319 kts | 254° |
| 2026-05-05 14:09 | 43.71359 | 5.03412 | 11116 ft | 301 kts | 272° |
| 2026-05-05 14:09 | 43.71872 | 5.00689 | 11068 ft | 289 kts | 292° |
| 2026-05-05 14:09 | 43.73019 | 4.98475 | 11109 ft | 277 kts | 314° |
| 2026-05-05 14:09 | 43.74649 | 4.97010 | 11169 ft | 294 kts | 335° |
| 2026-05-05 14:10 | 43.76698 | 4.96333 | 11109 ft | 305 kts | 352° |
| 2026-05-05 14:10 | 43.78712 | 4.95740 | 11104 ft | 296 kts | 331° |
| 2026-05-05 14:10 | 43.80400 | 4.94166 | 11116 ft | 291 kts | 315° |
| 2026-05-05 14:10 | 43.81933 | 4.92321 | 11082 ft | 291 kts | 315° |
| 2026-05-05 14:11 | 43.83431 | 4.90509 | 11081 ft | 289 kts | 315° |
| 2026-05-05 14:11 | 43.85045 | 4.88839 | 11091 ft | 292 kts | 330° |
| 2026-05-05 14:11 | 43.86932 | 4.87623 | 11073 ft | 311 kts | 331° |
| 2026-05-05 14:11 | 43.88958 | 4.86153 | 10990 ft | 344 kts | 328° |
| 2026-05-05 14:12 | 43.91122 | 4.84492 | 10755 ft | 363 kts | 328° |
| 2026-05-05 14:12 | 43.93261 | 4.82813 | 10298 ft | 355 kts | 328° |
| 2026-05-05 14:12 | 43.95438 | 4.81076 | 9803 ft | 362 kts | 328° |
| 2026-05-05 14:12 | 43.97583 | 4.79352 | 9280 ft | 352 kts | 328° |
| 2026-05-05 14:13 | 43.99646 | 4.77685 | 9186 ft | 333 kts | 328° |
| 2026-05-05 14:13 | 44.01583 | 4.76117 | 9181 ft | 313 kts | 328° |
| 2026-05-05 14:13 | 44.03410 | 4.74634 | 9164 ft | 295 kts | 328° |
| 2026-05-05 14:13 | 44.05106 | 4.73255 | 9137 ft | 276 kts | 328° |
| 2026-05-05 14:14 | 44.06763 | 4.71904 | 9137 ft | 275 kts | 328° |
| 2026-05-05 14:14 | 44.08427 | 4.70514 | 9112 ft | 285 kts | 322° |
| 2026-05-05 14:14 | 44.09734 | 4.68516 | 8976 ft | 277 kts | 294° |
| 2026-05-05 14:14 | 44.10198 | 4.65997 | 8943 ft | 268 kts | 265° |
| 2026-05-05 14:15 | 44.09746 | 4.63558 | 8933 ft | 265 kts | 238° |
| 2026-05-05 14:15 | 44.08493 | 4.61715 | 8927 ft | 266 kts | 210° |
| 2026-05-05 14:15 | 44.06746 | 4.60940 | 8920 ft | 267 kts | 182° |
| 2026-05-05 14:15 | 44.04921 | 4.61438 | 8910 ft | 270 kts | 154° |
| 2026-05-05 14:16 | 44.03462 | 4.63081 | 8892 ft | 273 kts | 132° |
| 2026-05-05 14:16 | 44.02282 | 4.65151 | 8738 ft | 278 kts | 130° |
| 2026-05-05 14:16 | 44.01091 | 4.67249 | 8450 ft | 272 kts | 132° |
| 2026-05-05 14:16 | 44.00046 | 4.69369 | 8427 ft | 266 kts | 113° |
| 2026-05-05 14:17 | 43.99632 | 4.71928 | 8265 ft | 280 kts | 104° |
| 2026-05-05 14:17 | 43.98904 | 4.74377 | 7924 ft | 274 kts | 130° |
| 2026-05-05 14:17 | 43.97498 | 4.75977 | 7824 ft | 256 kts | 159° |
| 2026-05-05 14:17 | 43.95816 | 4.76850 | 7744 ft | 260 kts | 161° |
| 2026-05-05 14:18 | 43.94132 | 4.77753 | 7643 ft | 264 kts | 160° |
| 2026-05-05 14:18 | 43.92413 | 4.78701 | 7511 ft | 263 kts | 160° |
| 2026-05-05 14:18 | 43.90722 | 4.79643 | 7370 ft | 261 kts | 160° |
| 2026-05-05 14:18 | 43.89054 | 4.80577 | 7234 ft | 261 kts | 160° |
| 2026-05-05 14:19 | 43.87368 | 4.81524 | 7092 ft | 261 kts | 160° |
| 2026-05-05 14:19 | 43.85696 | 4.82464 | 6953 ft | 260 kts | 160° |
| 2026-05-05 14:19 | 43.84018 | 4.83410 | 6804 ft | 258 kts | 160° |
| 2026-05-05 14:19 | 43.82359 | 4.84344 | 6644 ft | 257 kts | 160° |
| 2026-05-05 14:20 | 43.80708 | 4.85273 | 6484 ft | 256 kts | 160° |
| 2026-05-05 14:20 | 43.79060 | 4.86201 | 6320 ft | 255 kts | 160° |
| 2026-05-05 14:20 | 43.77410 | 4.87129 | 6163 ft | 255 kts | 159° |
| 2026-05-05 14:20 | 43.75797 | 4.88036 | 5995 ft | 249 kts | 159° |
| 2026-05-05 14:21 | 43.74229 | 4.88919 | 5823 ft | 240 kts | 160° |
| 2026-05-05 14:21 | 43.72701 | 4.89777 | 5645 ft | 231 kts | 160° |
| 2026-05-05 14:21 | 43.71227 | 4.90605 | 5471 ft | 224 kts | 160° |
| 2026-05-05 14:21 | 43.69812 | 4.91400 | 5288 ft | 216 kts | 160° |
| 2026-05-05 14:22 | 43.68447 | 4.92165 | 5112 ft | 210 kts | 160° |
| 2026-05-05 14:22 | 43.67114 | 4.92912 | 4921 ft | 203 kts | 160° |
| 2026-05-05 14:22 | 43.65822 | 4.93636 | 4788 ft | 193 kts | 160° |
| 2026-05-05 14:22 | 43.64639 | 4.94301 | 4752 ft | 179 kts | 160° |
| 2026-05-05 14:23 | 43.63501 | 4.94937 | 4765 ft | 173 kts | 160° |
| 2026-05-05 14:23 | 43.62357 | 4.95575 | 4714 ft | 181 kts | 160° |
| 2026-05-05 14:23 | 43.61295 | 4.96469 | 4527 ft | 183 kts | 138° |
| 2026-05-05 14:23 | 43.60397 | 4.97696 | 4320 ft | 181 kts | 137° |
| 2026-05-05 14:24 | 43.59516 | 4.98929 | 4094 ft | 179 kts | 136° |
| 2026-05-05 14:24 | 43.58656 | 5.00166 | 3865 ft | 177 kts | 136° |
| 2026-05-05 14:24 | 43.57809 | 5.01380 | 3635 ft | 174 kts | 136° |
| 2026-05-05 14:24 | 43.57012 | 5.02521 | 3434 ft | 159 kts | 136° |
| 2026-05-05 14:25 | 43.56287 | 5.03561 | 3234 ft | 141 kts | 136° |
| 2026-05-05 14:25 | 43.55631 | 5.04497 | 3020 ft | 135 kts | 136° |
| 2026-05-05 14:25 | 43.54959 | 5.05453 | 2867 ft | 140 kts | 137° |
| 2026-05-05 14:25 | 43.54273 | 5.06428 | 2696 ft | 140 kts | 136° |
| 2026-05-05 14:26 | 43.53606 | 5.07380 | 2504 ft | 138 kts | 136° |
| 2026-05-05 14:26 | 43.52938 | 5.08331 | 2322 ft | 138 kts | 137° |
| 2026-05-05 14:26 | 43.52264 | 5.09289 | 2140 ft | 137 kts | 137° |
| 2026-05-05 14:26 | 43.51605 | 5.10229 | 1968 ft | 137 kts | 136° |
| 2026-05-05 14:27 | 43.50944 | 5.11171 | 1779 ft | 136 kts | 137° |
| 2026-05-05 14:27 | 43.50292 | 5.12099 | 1592 ft | 137 kts | 137° |
| 2026-05-05 14:27 | 43.49623 | 5.13050 | 1410 ft | 136 kts | 136° |
| 2026-05-05 14:27 | 43.48967 | 5.13986 | 1219 ft | 135 kts | 137° |
| 2026-05-05 14:28 | 43.48321 | 5.14903 | 1040 ft | 134 kts | 136° |
| 2026-05-05 14:28 | 43.47672 | 5.15826 | 868 ft | 135 kts | 136° |
| 2026-05-05 14:28 | 43.47018 | 5.16756 | 679 ft | 135 kts | 138° |
| 2026-05-05 14:28 | 43.46367 | 5.17675 | 526 ft | 135 kts | 136° |
| 2026-05-05 14:29 | 43.45716 | 5.18610 | 340 ft | 134 kts | 137° |
| 2026-05-05 14:29 | 43.45066 | 5.19536 | 162 ft | 135 kts | 137° |
| 2026-05-05 14:29 | 43.44417 | 5.20452 | 18 ft | 133 kts | 138° |
| 2026-05-05 14:29 | 43.43825 | 5.21276 | 29 ft | 92 kts | 133° |
| 2026-05-05 14:30 | 43.43486 | 5.21763 | 44 ft | 59 kts | 135° |
| 2026-05-05 14:30 | 43.43241 | 5.22114 | 55 ft | 45 kts | 134° |
| 2026-05-05 14:30 | 43.43077 | 5.22354 | 63 ft | 19 kts | 124° |
| 2026-05-05 14:30 | 43.43093 | 5.22468 | 65 ft | 11 kts | 31° |
| 2026-05-05 14:31 | 43.43164 | 5.22494 | 64 ft | 10 kts | 7° |
| 2026-05-05 14:31 | 43.43225 | 5.22471 | 62 ft | 8 kts | 317° |
| 2026-05-05 14:31 | 43.43267 | 5.22413 | 60 ft | 8 kts | 313° |
| 2026-05-05 14:31 | 43.43309 | 5.22355 | 58 ft | 8 kts | 315° |
| 2026-05-05 14:32 | 43.43352 | 5.22303 | 56 ft | 8 kts | 332° |
| 2026-05-05 14:32 | 43.43424 | 5.22271 | 53 ft | 12 kts | 341° |
| 2026-05-05 14:32 | 43.43521 | 5.22203 | 48 ft | 18 kts | 329° |
| 2026-05-05 14:32 | 43.43652 | 5.22094 | 41 ft | 25 kts | 329° |
| 2026-05-05 14:33 | 43.43779 | 5.21985 | 36 ft | 20 kts | 317° |
| 2026-05-05 14:33 | 43.43879 | 5.21846 | 31 ft | 20 kts | 314° |
| 2026-05-05 14:33 | 43.43956 | 5.21733 | 28 ft | 10 kts | 313° |
| 2026-05-05 14:33 | 43.43979 | 5.21652 | 26 ft | 10 kts | 256° |
| 2026-05-05 14:34 | 43.43930 | 5.21559 | 27 ft | 13 kts | 239° |
| 2026-05-05 14:34 | 43.43955 | 5.21435 | 26 ft | 16 kts | 314° |
| 2026-05-05 14:34 | 43.44038 | 5.21319 | 25 ft | 16 kts | 313° |
| 2026-05-05 14:34 | 43.44112 | 5.21209 | 23 ft | 12 kts | 313° |
| 2026-05-05 14:35 | 43.44181 | 5.21173 | 22 ft | 10 kts | 13° |
| 2026-05-05 14:35 | 43.44224 | 5.21231 | 21 ft | 8 kts | 60° |
| 2026-05-05 14:35 | 43.44256 | 5.21268 | 20 ft | 5 kts | 359° |
| 2026-05-05 14:35 | 43.44282 | 5.21242 | 20 ft | 4 kts | 313° |
| 2026-05-05 14:36 | 43.44302 | 5.21213 | 19 ft | 0 kts | 313° |